Time;durP1;ratioP1;P1;durP2;ratioP2;P2;SDS_P1;SDS_P2;PMS_P1;PMS_P2;Temp;Humidity;BMP_temperature;BMP_pressure;BME280_temperature;BME280_humidity;BME280_pressure;Samples;Min_cycle;Max_cycle;Signal;HPM_P1;HPM_P2
2022/02/19 00:00:26;;;;;;;;;;;;;;;12.35;73.68;96748.06;1764784;80;20580;-84
2022/02/19 00:02:54;;;;;;;;;;;;;;;12.31;73.74;96783.47;1761899;80;20576;-84
2022/02/19 00:05:21;;;;;;;;;;;;;;;12.22;73.98;96809.34;1762601;80;22016;-86
2022/02/19 00:07:47;;;;;;;;;;;;;;;11.98;74.52;96821.83;1761160;80;26040;-85
2022/02/19 00:10:13;;;;;;;;;;;;;;;11.63;75.35;96841.88;1754457;80;24389;-83
2022/02/19 00:12:39;;;;;;;;;;;;;;;11.35;76.04;96832.98;1754499;80;20537;-84
2022/02/19 00:15:06;;;;;;;;;;;;;;;11.13;76.52;96837.68;1762685;80;24450;-83
2022/02/19 00:17:34;;;;;;;;;;;;;;;11.02;76.82;96823.50;1760836;80;22031;-85
2022/02/19 00:20:02;;;;;;;;;;;;;;;10.93;76.99;96831.43;1760400;80;25512;-86
2022/02/19 00:22:30;;;;;;;;;;;;;;;10.88;77.09;96836.63;1771145;78;25170;-86
2022/02/19 00:24:57;;;;;;;;;;;;;;;10.85;77.08;96833.50;1767533;80;20188;-85
2022/02/19 00:27:23;;;;;;;;;;;;;;;10.81;76.92;96837.36;1775469;78;24640;-84
2022/02/19 00:29:49;;;;;;;;;;;;;;;10.77;76.73;96835.53;1742080;81;21984;-86
2022/02/19 00:32:15;;;;;;;;;;;;;;;10.75;76.50;96823.06;1716574;83;21024;-86
2022/02/19 00:34:41;;;;;;;;;;;;;;;10.75;76.19;96820.45;1711421;83;24437;-87
2022/02/19 00:37:08;;;;;;;;;;;;;;;10.71;75.89;96826.13;1715065;83;20273;-88
2022/02/19 00:39:38;;;;;;;;;;;;;;;10.72;75.43;96826.47;1703017;83;24668;-87
2022/02/19 00:42:05;;;;;;;;;;;;;;;10.71;74.94;96835.29;1735991;81;22703;-85
2022/02/19 00:44:33;;;;;;;;;;;;;;;10.71;74.37;96834.81;1712406;83;26920;-85
2022/02/19 00:46:59;;;;;;;;;;;;;;;10.72;73.70;96862.63;1714651;81;24554;-88
2022/02/19 00:49:25;;;;;;;;;;;;;;;10.70;73.11;96847.55;1731169;81;20521;-88
2022/02/19 00:51:51;;;;;;;;;;;;;;;10.70;72.54;96838.39;1720639;83;24542;-88
2022/02/19 00:54:18;;;;;;;;;;;;;;;10.68;71.73;96846.89;1724076;83;22055;-88
2022/02/19 00:56:44;;;;;;;;;;;;;;;10.70;71.05;96842.80;1705975;83;26171;-88
2022/02/19 00:59:10;;;;;;;;;;;;;;;10.66;70.44;96829.20;1728160;83;24472;-85
2022/02/19 01:01:39;;;;;;;;;;;;;;;10.66;69.70;96840.14;1727467;81;20366;-88
2022/02/19 01:04:05;;;;;;;;;;;;;;;10.66;69.01;96820.52;1727758;81;25304;-86
2022/02/19 01:06:32;;;;;;;;;;;;;;;10.65;68.35;96829.33;1726999;81;20250;-84
2022/02/19 01:08:58;;;;;;;;;;;;;;;10.65;67.81;96826.72;1728566;81;26708;-84
2022/02/19 01:11:24;;;;;;;;;;;;;;;10.64;67.47;96823.75;1726605;81;24682;-84
2022/02/19 01:13:50;;;;;;;;;;;;;;;10.62;67.13;96840.10;1727361;81;20212;-87
2022/02/19 01:16:17;;;;;;;;;;;;;;;10.60;66.86;96832.88;1714876;82;24717;-87
2022/02/19 01:18:43;;;;;;;;;;;;;;;10.59;66.56;96853.45;1737480;81;21383;-84
2022/02/19 01:21:10;;;;;;;;;;;;;;;10.56;66.29;96848.53;1728071;81;26745;-86
2022/02/19 01:23:37;;;;;;;;;;;;;;;10.54;66.07;96853.07;1673312;83;25320;-88
2022/02/19 01:26:03;;;;;;;;;;;;;;;10.53;65.95;96861.40;1701313;83;20257;-87
2022/02/19 01:28:34;;;;;;;;;;;;;;;10.52;65.84;96869.41;1716281;82;24554;-84
2022/02/19 01:31:00;;;;;;;;;;;;;;;10.48;65.70;96867.07;1710305;83;21974;-85
2022/02/19 01:33:28;;;;;;;;;;;;;;;10.47;65.61;96859.39;1711132;83;25984;-85
2022/02/19 01:35:54;;;;;;;;;;;;;;;10.45;65.55;96861.31;1716797;83;24627;-86
2022/02/19 01:38:27;;;;;;;;;;;;;;;10.43;65.48;96873.22;1690336;84;20503;-84
2022/02/19 01:40:49;;;;;;;;;;;;;;;10.44;65.47;96893.18;1684233;84;24664;-84
2022/02/19 01:43:15;;;;;;;;;;;;;;;10.44;65.44;96887.12;1709441;83;22205;-84
2022/02/19 01:45:43;;;;;;;;;;;;;;;10.41;65.33;96886.95;1701506;83;25983;-85
2022/02/19 01:48:10;;;;;;;;;;;;;;;10.40;65.11;96876.14;1700656;83;25121;-87
2022/02/19 01:50:43;;;;;;;;;;;;;;;10.39;64.75;96866.64;1696475;83;20222;-87
2022/02/19 01:53:07;;;;;;;;;;;;;;;10.39;64.08;96869.73;1694763;83;24623;-87
2022/02/19 01:55:34;;;;;;;;;;;;;;;10.38;63.37;96889.00;1696812;83;21944;-88
2022/02/19 01:58:02;;;;;;;;;;;;;;;10.36;62.88;96888.34;1698610;83;26053;-88
2022/02/19 02:00:29;;;;;;;;;;;;;;;10.34;62.35;96880.63;1697451;83;24490;-88
2022/02/19 02:02:57;;;;;;;;;;;;;;;10.34;61.87;96887.65;1701181;83;20191;-88
2022/02/19 02:05:25;;;;;;;;;;;;;;;10.30;61.41;96887.12;1725526;83;24768;-86
2022/02/19 02:07:51;;;;;;;;;;;;;;;10.28;60.89;96877.77;1722177;81;22475;-86
2022/02/19 02:10:17;;;;;;;;;;;;;;;10.27;60.38;96900.46;1701815;83;26210;-86
2022/02/19 02:12:44;;;;;;;;;;;;;;;10.24;59.79;96896.84;1710640;83;24401;-86
2022/02/19 02:15:33;;;;;;;;;;;;;;;10.23;59.32;96889.13;1695039;83;20266;-86
2022/02/19 02:17:59;;;;;;;;;;;;;;;10.22;58.89;96905.30;1692818;83;24582;-86
2022/02/19 02:20:25;;;;;;;;;;;;;;;10.20;58.47;96917.67;1694982;83;22032;-84
2022/02/19 02:22:52;;;;;;;;;;;;;;;10.17;58.09;96917.97;1707296;82;26086;-84
2022/02/19 02:25:27;;;;;;;;;;;;;;;10.17;57.61;96919.28;1720096;82;24561;-84
2022/02/19 02:27:53;;;;;;;;;;;;;;;10.15;57.15;96915.94;1721200;82;20222;-85
2022/02/19 02:30:19;;;;;;;;;;;;;;;10.13;56.74;96915.76;1721101;82;24582;-88
2022/02/19 02:32:46;;;;;;;;;;;;;;;10.11;56.39;96934.19;1711612;83;21962;-88
2022/02/19 02:35:15;;;;;;;;;;;;;;;10.04;55.99;96942.23;1721523;83;25985;-88
2022/02/19 02:37:41;;;;;;;;;;;;;;;10.03;55.54;96951.06;1736721;82;24535;-84
2022/02/19 02:40:08;;;;;;;;;;;;;;;10.03;55.18;96958.43;1728098;82;20175;-86
2022/02/19 02:42:34;;;;;;;;;;;;;;;10.02;54.91;96951.55;1732622;82;24531;-87
2022/02/19 02:45:00;;;;;;;;;;;;;;;9.99;54.62;96953.12;1724746;82;21939;-83
2022/02/19 02:47:26;;;;;;;;;;;;;;;9.98;54.29;96987.25;1732077;82;26326;-83
2022/02/19 02:49:56;;;;;;;;;;;;;;;9.98;54.01;96986.74;1728676;82;24620;-87
2022/02/19 02:52:22;;;;;;;;;;;;;;;9.96;53.78;96989.17;1734142;82;20226;-84
2022/02/19 02:54:48;;;;;;;;;;;;;;;9.95;53.56;96987.52;1728275;82;25241;-84
2022/02/19 02:57:14;;;;;;;;;;;;;;;9.92;53.33;96986.02;1728168;82;20287;-85
2022/02/19 02:59:43;;;;;;;;;;;;;;;9.89;53.06;96983.66;1730502;82;26074;-88
2022/02/19 03:02:09;;;;;;;;;;;;;;;9.86;52.79;96988.35;1736898;82;24539;-85
2022/02/19 03:04:35;;;;;;;;;;;;;;;9.80;52.51;96996.73;1728218;82;20269;-88
2022/02/19 03:07:01;;;;;;;;;;;;;;;9.79;52.13;97008.97;1733371;82;24537;-90
2022/02/19 03:09:27;;;;;;;;;;;;;;;9.78;51.90;97022.98;1731136;82;22053;-85
2022/02/19 03:11:55;;;;;;;;;;;;;;;9.76;51.65;97033.25;1731718;82;26029;-86
2022/02/19 03:14:21;;;;;;;;;;;;;;;9.71;51.41;97036.75;1729924;82;24776;-87
2022/02/19 03:16:47;;;;;;;;;;;;;;;9.68;51.26;97037.83;1730962;81;20477;-87
2022/02/19 03:19:15;;;;;;;;;;;;;;;9.65;51.11;97027.16;1731846;82;24593;-86
2022/02/19 03:21:41;;;;;;;;;;;;;;;9.62;50.96;97032.67;1732413;82;21905;-87
2022/02/19 03:24:07;;;;;;;;;;;;;;;9.59;50.81;97039.96;1733469;82;26074;-88
2022/02/19 03:26:34;;;;;;;;;;;;;;;9.57;50.69;97045.79;1737982;82;24503;-86
2022/02/19 03:29:00;;;;;;;;;;;;;;;9.55;50.60;97045.09;1729844;81;20329;-85
2022/02/19 03:31:26;;;;;;;;;;;;;;;9.52;50.52;97045.37;1734768;82;24587;-85
2022/02/19 03:33:52;;;;;;;;;;;;;;;9.48;50.42;97052.66;1715005;82;21997;-87
2022/02/19 03:36:18;;;;;;;;;;;;;;;9.46;50.41;97048.04;1723502;82;25959;-86
2022/02/19 03:38:44;;;;;;;;;;;;;;;9.42;50.31;97040.14;1750958;81;24443;-85
2022/02/19 03:41:10;;;;;;;;;;;;;;;9.40;50.16;97029.47;1730164;80;20237;-85
2022/02/19 03:43:36;;;;;;;;;;;;;;;9.35;50.06;97032.48;1725885;82;24535;-87
2022/02/19 03:46:02;;;;;;;;;;;;;;;9.34;49.99;97043.87;1747319;81;22018;-87
2022/02/19 03:48:28;;;;;;;;;;;;;;;9.31;49.92;97045.46;1747321;81;20802;-87
2022/02/19 03:50:57;;;;;;;;;;;;;;;9.29;49.83;97053.89;1732563;81;24509;-87
2022/02/19 03:53:23;;;;;;;;;;;;;;;9.23;49.71;97044.81;1732427;82;20220;-86
2022/02/19 03:55:50;;;;;;;;;;;;;;;9.22;49.60;97041.02;1732672;82;24523;-87
2022/02/19 03:58:16;;;;;;;;;;;;;;;9.20;49.45;97063.36;1715609;82;22051;-89
2022/02/19 04:00:42;;;;;;;;;;;;;;;9.19;49.34;97064.31;1749185;81;21080;-88
2022/02/19 04:03:09;;;;;;;;;;;;;;;9.17;49.29;97071.91;1723038;82;24654;-85
2022/02/19 04:05:36;;;;;;;;;;;;;;;9.15;49.23;97083.81;1715812;83;20263;-85
2022/02/19 04:08:02;;;;;;;;;;;;;;;9.13;49.17;97073.97;1714569;83;20432;-86
2022/02/19 04:10:28;;;;;;;;;;;;;;;9.11;49.12;97073.77;1746849;81;21956;-86
2022/02/19 04:12:54;;;;;;;;;;;;;;;9.09;49.04;97099.16;1715367;83;25930;-87
2022/02/19 04:15:20;;;;;;;;;;;;;;;8.98;48.96;97080.98;1720666;83;24405;-87
2022/02/19 04:17:46;;;;;;;;;;;;;;;9.04;48.93;97098.73;1749222;81;20305;-86
2022/02/19 04:20:12;;;;;;;;;;;;;;;9.00;48.85;97099.45;1732665;81;24513;-89
2022/02/19 04:22:41;;;;;;;;;;;;;;;8.98;48.81;97100.55;1732185;81;21975;-85
2022/02/19 04:25:18;;;;;;;;;;;;;;;8.95;48.74;97085.14;1700377;84;26193;-85
2022/02/19 04:27:44;;;;;;;;;;;;;;;8.92;48.60;97103.67;1703164;82;24440;-87
2022/02/19 04:30:12;;;;;;;;;;;;;;;8.90;48.55;97096.44;1713168;83;20168;-86
2022/02/19 04:32:40;;;;;;;;;;;;;;;8.88;48.50;97102.28;1711567;83;24550;-87
2022/02/19 04:35:12;;;;;;;;;;;;;;;8.84;48.45;97108.72;1717014;83;22201;-88
2022/02/19 04:37:38;;;;;;;;;;;;;;;8.82;48.44;97119.28;1722168;83;26242;-87
2022/02/19 04:40:08;;;;;;;;;;;;;;;8.78;48.42;97124.41;1720444;81;24511;-89
2022/02/19 04:42:35;;;;;;;;;;;;;;;8.72;48.38;97117.92;1719629;83;20371;-85
2022/02/19 04:45:02;;;;;;;;;;;;;;;8.68;48.32;97120.89;1718043;83;24422;-85
2022/02/19 04:47:28;;;;;;;;;;;;;;;8.65;48.30;97126.38;1718167;81;22041;-88
2022/02/19 04:49:54;;;;;;;;;;;;;;;8.61;48.27;97134.11;1721395;83;26016;-86
2022/02/19 04:52:20;;;;;;;;;;;;;;;8.56;48.25;97131.88;1720830;83;24566;-88
2022/02/19 04:54:47;;;;;;;;;;;;;;;8.51;48.20;97130.10;1723747;82;20221;-88
2022/02/19 04:57:13;;;;;;;;;;;;;;;8.49;48.17;97132.03;1720522;81;20376;-88
2022/02/19 04:59:40;;;;;;;;;;;;;;;8.45;48.16;97120.20;1721314;83;22554;-85
2022/02/19 05:02:07;;;;;;;;;;;;;;;8.44;48.11;97134.66;1718167;81;26058;-86
2022/02/19 05:04:33;;;;;;;;;;;;;;;8.39;48.09;97139.78;1718918;83;24536;-85
2022/02/19 05:06:59;;;;;;;;;;;;;;;8.38;48.09;97135.98;1722525;83;20211;-88
2022/02/19 05:09:25;;;;;;;;;;;;;;;8.35;48.07;97134.92;1718633;83;20901;-86
2022/02/19 05:11:51;;;;;;;;;;;;;;;8.31;48.04;97133.52;1719362;83;22225;-85
2022/02/19 05:14:17;;;;;;;;;;;;;;;8.26;48.00;97139.08;1721296;83;26132;-85
2022/02/19 05:16:43;;;;;;;;;;;;;;;8.24;47.97;97130.55;1718916;83;24509;-85
2022/02/19 05:19:11;;;;;;;;;;;;;;;8.22;47.90;97125.95;1717699;83;20225;-85
2022/02/19 05:21:37;;;;;;;;;;;;;;;8.21;47.86;97145.14;1720596;81;24634;-85
2022/02/19 05:24:03;;;;;;;;;;;;;;;8.19;47.81;97148.81;1722049;82;21935;-88
2022/02/19 05:26:29;;;;;;;;;;;;;;;8.16;47.75;97138.65;1719646;83;25982;-88
2022/02/19 05:28:55;;;;;;;;;;;;;;;8.16;47.73;97153.81;1716794;83;24400;-88
2022/02/19 05:31:21;;;;;;;;;;;;;;;8.12;47.68;97138.08;1720070;81;20222;-88
2022/02/19 05:33:48;;;;;;;;;;;;;;;8.10;47.67;97145.66;1722461;81;24541;-88
2022/02/19 05:36:21;;;;;;;;;;;;;;;8.08;47.63;97152.75;1719976;81;22156;-85
2022/02/19 05:38:47;;;;;;;;;;;;;;;8.07;47.60;97145.91;1719263;82;26048;-84
2022/02/19 05:41:13;;;;;;;;;;;;;;;8.05;47.55;97152.55;1721893;83;20786;-87
2022/02/19 05:43:41;;;;;;;;;;;;;;;8.01;47.51;97147.70;1715798;83;20321;-86
2022/02/19 05:46:07;;;;;;;;;;;;;;;7.98;47.49;97153.50;1722558;82;24627;-85
2022/02/19 05:48:33;;;;;;;;;;;;;;;7.97;47.50;97155.75;1718204;81;21951;-85
2022/02/19 05:50:59;;;;;;;;;;;;;;;7.95;47.52;97162.88;1721125;83;21127;-85
2022/02/19 05:53:25;;;;;;;;;;;;;;;7.91;47.51;97165.81;1717762;83;24613;-85
2022/02/19 05:55:53;;;;;;;;;;;;;;;7.85;47.54;97164.56;1722073;83;20153;-85
2022/02/19 05:58:19;;;;;;;;;;;;;;;7.84;47.54;97164.67;1723897;83;24574;-85
2022/02/19 06:00:45;;;;;;;;;;;;;;;7.83;47.58;97175.56;1720647;81;22019;-88
2022/02/19 06:03:14;;;;;;;;;;;;;;;7.83;47.60;97181.23;1722440;83;26694;-84
2022/02/19 06:05:40;;;;;;;;;;;;;;;7.81;47.66;97165.73;1719085;83;24622;-84
2022/02/19 06:08:06;;;;;;;;;;;;;;;7.81;47.67;97190.94;1723784;82;20306;-85
2022/02/19 06:10:32;;;;;;;;;;;;;;;7.81;47.70;97193.55;1722406;83;24503;-86
2022/02/19 06:12:58;;;;;;;;;;;;;;;7.78;47.74;97198.53;1718098;83;21932;-85
2022/02/19 06:15:30;;;;;;;;;;;;;;;7.78;47.77;97184.69;1719501;83;26765;-88
2022/02/19 06:17:56;;;;;;;;;;;;;;;7.77;47.77;97196.87;1719179;81;24451;-85
2022/02/19 06:20:22;;;;;;;;;;;;;;;7.76;47.83;97209.53;1724538;83;20767;-85
2022/02/19 06:22:48;;;;;;;;;;;;;;;7.75;47.82;97218.76;1721768;81;24611;-85
2022/02/19 06:25:20;;;;;;;;;;;;;;;7.74;47.81;97219.27;1726576;82;21997;-86
2022/02/19 06:27:46;;;;;;;;;;;;;;;7.72;47.83;97221.14;1732905;82;26317;-86
2022/02/19 06:30:16;;;;;;;;;;;;;;;7.71;47.83;97227.30;1734110;82;24604;-86
2022/02/19 06:32:42;;;;;;;;;;;;;;;7.70;47.82;97228.23;1729047;82;20374;-86
2022/02/19 06:35:09;;;;;;;;;;;;;;;7.66;47.78;97236.41;1729220;82;24778;-85
2022/02/19 06:37:38;;;;;;;;;;;;;;;7.64;47.67;97248.73;1727524;82;21888;-85
2022/02/19 06:40:12;;;;;;;;;;;;;;;7.62;47.58;97258.42;1734604;82;26205;-84
2022/02/19 06:42:38;;;;;;;;;;;;;;;7.61;47.38;97255.46;1728582;82;24632;-84
2022/02/19 06:45:05;;;;;;;;;;;;;;;7.58;47.21;97272.63;1734971;82;20194;-84
2022/02/19 06:47:38;;;;;;;;;;;;;;;7.58;47.02;97267.42;1730403;82;25530;-84
2022/02/19 06:50:05;;;;;;;;;;;;;;;7.56;46.86;97297.00;1731910;82;22006;-87
2022/02/19 06:52:31;;;;;;;;;;;;;;;7.52;46.78;97300.80;1725839;82;26003;-87
2022/02/19 06:54:57;;;;;;;;;;;;;;;7.50;46.65;97298.77;1729998;82;24519;-87
2022/02/19 06:57:23;;;;;;;;;;;;;;;7.47;46.54;97296.38;1701004;82;20219;-85
2022/02/19 06:59:51;;;;;;;;;;;;;;;7.46;46.43;97314.73;1705179;82;20982;-85
2022/02/19 07:02:18;;;;;;;;;;;;;;;7.46;46.37;97326.45;1732464;82;22048;-85
2022/02/19 07:04:45;;;;;;;;;;;;;;;7.46;46.37;97331.66;1734612;82;26048;-85
2022/02/19 07:07:12;;;;;;;;;;;;;;;7.46;46.32;97338.16;1725960;82;24480;-84
2022/02/19 07:09:39;;;;;;;;;;;;;;;7.47;46.29;97321.11;1726035;82;20480;-84
2022/02/19 07:12:05;;;;;;;;;;;;;;;7.49;46.27;97345.73;1727902;82;24632;-85
2022/02/19 07:14:32;;;;;;;;;;;;;;;7.51;46.28;97343.38;1723591;82;22092;-85
2022/02/19 07:17:04;;;;;;;;;;;;;;;7.56;46.28;97336.52;1729254;82;25995;-85
2022/02/19 07:19:33;;;;;;;;;;;;;;;7.58;46.31;97344.56;1729267;82;24369;-85
2022/02/19 07:21:59;;;;;;;;;;;;;;;7.63;46.33;97335.59;1722373;82;20768;-86
2022/02/19 07:24:25;;;;;;;;;;;;;;;7.68;46.38;97348.63;1728498;82;24596;-86
2022/02/19 07:26:51;;;;;;;;;;;;;;;7.75;46.42;97351.57;1729104;82;22082;-89
2022/02/19 07:29:17;;;;;;;;;;;;;;;7.79;46.45;97323.91;1731368;82;26042;-87
2022/02/19 07:31:43;;;;;;;;;;;;;;;7.84;46.42;97351.73;1727738;82;24452;-88
2022/02/19 07:34:09;;;;;;;;;;;;;;;7.88;46.38;97340.12;1729711;82;20208;-88
2022/02/19 07:36:35;;;;;;;;;;;;;;;7.87;46.23;97341.53;1727267;82;24593;-88
2022/02/19 07:39:08;;;;;;;;;;;;;;;7.87;45.99;97336.32;1729767;82;22547;-88
2022/02/19 07:41:35;;;;;;;;;;;;;;;7.84;45.72;97342.61;1724212;81;26020;-88
2022/02/19 07:44:01;;;;;;;;;;;;;;;7.86;45.56;97338.56;1752920;80;24489;-87
2022/02/19 07:46:27;;;;;;;;;;;;;;;7.87;45.40;97361.90;1741454;80;20203;-88
2022/02/19 07:58:17;;;;;;;;;;;;;;;7.88;45.30;97366.64;1738148;82;24570;-88
2022/02/19 07:59:40;;;;;;;;;;;;;;;7.99;45.21;97364.05;1734199;82;20231;-87
2022/02/19 08:02:06;;;;;;;;;;;;;;;8.02;45.24;97353.38;1736138;82;24584;-88
2022/02/19 08:04:32;;;;;;;;;;;;;;;8.04;45.24;97371.03;1732222;82;21956;-88
2022/02/19 08:06:58;;;;;;;;;;;;;;;8.07;45.27;97375.20;1735561;82;25948;-88
2022/02/19 08:09:27;;;;;;;;;;;;;;;8.11;45.26;97366.19;1735954;82;25283;-88
2022/02/19 08:11:53;;;;;;;;;;;;;;;8.11;45.23;97390.94;1734673;82;20208;-88
2022/02/19 08:14:19;;;;;;;;;;;;;;;8.15;45.16;97387.98;1738458;82;24685;-83
2022/02/19 08:16:45;;;;;;;;;;;;;;;8.23;45.17;97393.92;1734835;82;21979;-84
2022/02/19 08:19:12;;;;;;;;;;;;;;;8.29;45.14;97400.77;1737812;81;25939;-85
2022/02/19 08:21:38;;;;;;;;;;;;;;;8.33;45.05;97390.52;1739297;81;24530;-85
2022/02/19 08:24:04;;;;;;;;;;;;;;;8.38;45.01;97402.72;1729716;81;20212;-85
2022/02/19 08:26:31;;;;;;;;;;;;;;;8.43;44.97;97391.92;1724818;82;24644;-84
2022/02/19 08:29:00;;;;;;;;;;;;;;;8.42;44.86;97411.12;1728666;82;22665;-87
2022/02/19 08:31:26;;;;;;;;;;;;;;;8.40;44.80;97398.20;1718136;81;26010;-87
2022/02/19 08:33:52;;;;;;;;;;;;;;;8.40;44.74;97406.48;1736621;81;24613;-87
2022/02/19 08:36:19;;;;;;;;;;;;;;;8.45;44.71;97413.50;1743140;81;20920;-88
2022/02/19 08:38:45;;;;;;;;;;;;;;;8.52;44.71;97427.70;1727083;81;24744;-87
2022/02/19 08:41:16;;;;;;;;;;;;;;;8.57;44.65;97425.56;1741766;81;22166;-87
2022/02/19 08:43:39;;;;;;;;;;;;;;;8.57;44.48;97433.39;1743455;81;26799;-87
2022/02/19 08:46:05;;;;;;;;;;;;;;;8.58;44.36;97429.84;1746285;81;20947;-87
2022/02/19 08:48:31;;;;;;;;;;;;;;;8.62;44.28;97446.90;1741444;81;20292;-88
2022/02/19 08:51:00;;;;;;;;;;;;;;;8.62;44.17;97435.67;1740695;81;24594;-88
2022/02/19 08:53:25;;;;;;;;;;;;;;;8.59;43.92;97441.94;1734258;81;22244;-88
2022/02/19 08:55:51;;;;;;;;;;;;;;;8.56;43.71;97452.62;1740833;81;26029;-87
2022/02/19 08:58:18;;;;;;;;;;;;;;;8.51;43.51;97456.02;1748730;81;24447;-87
2022/02/19 09:00:44;;;;;;;;;;;;;;;8.50;43.34;97451.78;1744604;81;20584;-83
2022/02/19 09:03:10;;;;;;;;;;;;;;;8.57;43.29;97465.16;1742533;80;24590;-83
2022/02/19 09:05:37;;;;;;;;;;;;;;;8.60;43.28;97482.72;1744556;81;21948;-83
2022/02/19 09:08:03;;;;;;;;;;;;;;;8.57;43.08;97472.50;1743063;81;26079;-83
2022/02/19 09:10:30;;;;;;;;;;;;;;;8.57;42.89;97476.89;1732638;81;24511;-83
2022/02/19 09:12:56;;;;;;;;;;;;;;;8.51;42.71;97464.34;1736624;81;20224;-83
2022/02/19 09:15:24;;;;;;;;;;;;;;;8.52;42.54;97479.86;1738057;81;24746;-83
2022/02/19 09:17:51;;;;;;;;;;;;;;;8.55;42.42;97493.98;1742770;81;22045;-83
2022/02/19 09:20:23;;;;;;;;;;;;;;;8.53;42.35;97503.69;1741271;81;25411;-84
2022/02/19 09:22:49;;;;;;;;;;;;;;;8.47;42.26;97501.54;1719112;82;24521;-83
2022/02/19 09:25:15;;;;;;;;;;;;;;;8.33;42.12;97505.68;1691970;83;20218;-83
2022/02/19 09:27:42;;;;;;;;;;;;;;;8.28;41.99;97511.69;1716556;83;24584;-83
2022/02/19 09:30:08;;;;;;;;;;;;;;;8.33;41.96;97507.81;1719591;81;22116;-83
2022/02/19 09:32:35;;;;;;;;;;;;;;;8.38;41.91;97506.16;1709011;83;26063;-83
2022/02/19 09:35:01;;;;;;;;;;;;;;;8.43;41.84;97522.28;1739484;82;24396;-83
2022/02/19 09:37:36;;;;;;;;;;;;;;;8.47;41.79;97524.17;1732903;82;20526;-83
2022/02/19 09:40:04;;;;;;;;;;;;;;;8.49;41.73;97549.20;1736752;82;24521;-83
2022/02/19 09:42:30;;;;;;;;;;;;;;;8.57;41.69;97552.52;1737186;81;22225;-83
2022/02/19 09:44:57;;;;;;;;;;;;;;;8.60;41.58;97532.27;1736008;82;26020;-83
2022/02/19 09:47:25;;;;;;;;;;;;;;;8.63;41.49;97562.48;1738906;81;24458;-83
2022/02/19 09:49:52;;;;;;;;;;;;;;;8.65;41.35;97567.95;1733000;82;20216;-83
2022/02/19 09:52:18;;;;;;;;;;;;;;;8.66;41.13;97590.95;1737108;82;24611;-84
2022/02/19 09:54:44;;;;;;;;;;;;;;;8.60;40.91;97607.90;1731563;81;22153;-83
2022/02/19 09:57:10;;;;;;;;;;;;;;;8.51;40.77;97591.61;1736366;80;21005;-84
2022/02/19 09:59:36;;;;;;;;;;;;;;;8.39;40.60;97578.22;1738104;82;24430;-84
2022/02/19 10:02:09;;;;;;;;;;;;;;;8.32;40.47;97594.78;1733855;82;20338;-83
2022/02/19 10:04:36;;;;;;;;;;;;;;;8.36;40.41;97600.59;1738254;82;24532;-83
2022/02/19 10:07:19;;;;;;;;;;;;;;;8.42;40.41;97614.47;1736215;82;22110;-83
2022/02/19 10:09:46;;;;;;;;;;;;;;;8.44;40.35;97594.34;1734901;81;26712;-84
2022/02/19 10:12:14;;;;;;;;;;;;;;;8.43;40.26;97593.98;1735596;82;24277;-83
2022/02/19 10:14:44;;;;;;;;;;;;;;;8.46;40.16;97606.77;1729868;82;20274;-84
2022/02/19 10:17:17;;;;;;;;;;;;;;;8.60;40.19;97620.10;1739538;82;24592;-83
2022/02/19 10:19:47;;;;;;;;;;;;;;;8.71;40.21;97620.97;1736609;82;22169;-83
2022/02/19 10:22:15;;;;;;;;;;;;;;;8.84;40.23;97614.83;1734809;82;25986;-83
2022/02/19 10:24:43;;;;;;;;;;;;;;;8.92;40.21;97623.72;1732526;82;24501;-83
2022/02/19 10:27:10;;;;;;;;;;;;;;;8.98;40.16;97618.04;1735739;82;20290;-83
2022/02/19 10:29:53;;;;;;;;;;;;;;;8.98;40.05;97627.17;1737557;82;24676;-83
2022/02/19 10:32:20;;;;;;;;;;;;;;;9.02;39.93;97636.89;1738212;80;22065;-83
2022/02/19 10:35:08;;;;;;;;;;;;;;;9.03;39.84;97645.09;1732265;82;26414;-83
2022/02/19 10:37:47;;;;;;;;;;;;;;;9.06;39.82;97639.63;1733764;82;24694;-84
2022/02/19 10:40:27;;;;;;;;;;;;;;;9.09;39.75;97639.41;1707460;82;20171;-87
2022/02/19 10:42:54;;;;;;;;;;;;;;;9.20;39.81;97652.47;1735931;81;24715;-85
2022/02/19 10:45:21;;;;;;;;;;;;;;;9.25;39.85;97655.55;1738747;80;21975;-87
2022/02/19 10:47:48;;;;;;;;;;;;;;;9.25;39.85;97645.11;1735404;81;26716;-86
2022/02/19 10:50:19;;;;;;;;;;;;;;;9.23;39.86;97650.44;1735073;81;24462;-86
2022/02/19 10:52:52;;;;;;;;;;;;;;;9.17;39.75;97663.13;1737274;81;20316;-86
2022/02/19 10:55:20;;;;;;;;;;;;;;;8.94;39.52;97664.06;1744384;81;24634;-86
2022/02/19 10:57:46;;;;;;;;;;;;;;;8.88;39.41;97672.34;1714439;82;22150;-86
2022/02/19 11:00:20;;;;;;;;;;;;;;;8.77;39.28;97666.16;1722589;82;26198;-86
2022/02/19 11:02:47;;;;;;;;;;;;;;;8.61;39.03;97670.02;1740218;81;24550;-86
2022/02/19 11:05:14;;;;;;;;;;;;;;;8.54;38.92;97667.03;1714426;81;20165;-86
2022/02/19 11:07:41;;;;;;;;;;;;;;;8.50;38.79;97681.25;1707868;81;24932;-86
2022/02/19 11:10:09;;;;;;;;;;;;;;;8.53;38.73;97670.58;1724718;81;21984;-86
2022/02/19 11:12:35;;;;;;;;;;;;;;;8.68;38.72;97681.64;1714752;83;26141;-86
2022/02/19 11:15:06;;;;;;;;;;;;;;;8.77;38.64;97678.37;1710555;83;24499;-86
2022/02/19 11:17:34;;;;;;;;;;;;;;;8.92;38.59;97670.69;1730296;81;20445;-87
2022/02/19 11:20:08;;;;;;;;;;;;;;;9.11;38.63;97666.23;1723283;82;24129;-87
2022/02/19 11:22:42;;;;;;;;;;;;;;;9.25;38.62;97671.22;1718020;82;22034;-87
2022/02/19 11:25:11;;;;;;;;;;;;;;;9.30;38.60;97687.83;1687497;83;26076;-87
2022/02/19 11:27:42;;;;;;;;;;;;;;;9.41;38.65;97689.14;1733971;82;24600;-87
2022/02/19 11:30:15;;;;;;;;;;;;;;;9.45;38.62;97684.03;1724741;81;20383;-88
2022/02/19 11:32:42;;;;;;;;;;;;;;;9.56;38.63;97682.25;1723301;82;24704;-88
2022/02/19 11:35:09;;;;;;;;;;;;;;;9.56;38.56;97677.03;1720875;82;22142;-88
2022/02/19 11:37:41;;;;;;;;;;;;;;;9.50;38.43;97693.17;1725637;82;26117;-88
2022/02/19 11:40:10;;;;;;;;;;;;;;;9.50;38.36;97663.14;1724808;83;24595;-88
2022/02/19 11:42:37;;;;;;;;;;;;;;;9.52;38.35;97672.17;1732830;80;20147;-88
2022/02/19 11:45:21;;;;;;;;;;;;;;;9.47;38.27;97660.78;1735454;82;24616;-87
2022/02/19 11:47:49;;;;;;;;;;;;;;;9.47;38.28;97666.00;1743609;82;22796;-87
2022/02/19 11:50:20;;;;;;;;;;;;;;;9.54;38.39;97674.20;1745229;82;26187;-87
2022/02/19 11:53:05;;;;;;;;;;;;;;;9.60;38.47;97678.45;1742019;82;24705;-86
2022/02/19 11:55:32;;;;;;;;;;;;;;;9.70;38.56;97679.06;1744982;82;20222;-86
2022/02/19 11:58:02;;;;;;;;;;;;;;;9.79;38.62;97661.34;1739323;82;24367;-85
2022/02/19 12:00:33;;;;;;;;;;;;;;;9.80;38.63;97661.23;1740495;82;22483;-86
2022/02/19 12:03:01;;;;;;;;;;;;;;;9.76;38.58;97660.29;1724533;82;25978;-86
2022/02/19 12:05:29;;;;;;;;;;;;;;;9.74;38.59;97682.61;1738825;82;24596;-85
2022/02/19 12:07:56;;;;;;;;;;;;;;;9.80;38.62;97682.61;1740587;82;20216;-85
2022/02/19 12:10:22;;;;;;;;;;;;;;;9.88;38.70;97684.95;1744412;80;24603;-85
2022/02/19 12:13:06;;;;;;;;;;;;;;;9.98;38.76;97691.62;1739354;82;22049;-85
2022/02/19 12:15:32;;;;;;;;;;;;;;;10.09;38.83;97686.37;1733085;82;26004;-85
2022/02/19 12:17:59;;;;;;;;;;;;;;;10.13;38.87;97685.64;1737163;82;24464;-85
2022/02/19 12:20:26;;;;;;;;;;;;;;;10.02;38.75;97700.87;1738740;80;20239;-85
2022/02/19 12:22:53;;;;;;;;;;;;;;;9.94;38.64;97701.94;1715973;81;24607;-85
2022/02/19 12:25:19;;;;;;;;;;;;;;;9.73;38.55;97701.01;1754179;80;22078;-83
2022/02/19 12:27:47;;;;;;;;;;;;;;;9.57;38.50;97701.38;1706468;82;26052;-83
2022/02/19 12:30:28;;;;;;;;;;;;;;;9.45;38.46;97708.38;1704680;83;24429;-83
2022/02/19 12:32:58;;;;;;;;;;;;;;;9.47;38.55;97708.27;1718725;81;20307;-84
2022/02/19 12:35:34;;;;;;;;;;;;;;;9.51;38.57;97720.96;1726656;82;24736;-84
2022/02/19 12:38:02;;;;;;;;;;;;;;;9.49;38.58;97710.30;1727043;82;22058;-84
2022/02/19 12:40:31;;;;;;;;;;;;;;;9.48;38.57;97702.09;1717686;83;26168;-84
2022/02/19 12:42:57;;;;;;;;;;;;;;;9.45;38.49;97721.91;1723474;81;24748;-84
2022/02/19 12:45:23;;;;;;;;;;;;;;;9.40;38.42;97704.45;1747260;81;20459;-84
2022/02/19 12:47:49;;;;;;;;;;;;;;;9.41;38.39;97732.23;1711718;83;24708;-85
2022/02/19 12:50:17;;;;;;;;;;;;;;;9.37;38.33;97732.95;1740309;81;21919;-85
2022/02/19 12:52:45;;;;;;;;;;;;;;;9.33;38.27;97731.50;1713943;81;25661;-87
2022/02/19 12:55:16;;;;;;;;;;;;;;;9.37;38.29;97730.34;1739495;81;24494;-83
2022/02/19 12:57:39;;;;;;;;;;;;;;;9.38;38.24;97723.34;1722423;82;21074;-83
2022/02/19 13:00:12;;;;;;;;;;;;;;;9.35;38.15;97724.86;1722172;82;24594;-83
2022/02/19 13:02:36;;;;;;;;;;;;;;;9.37;38.10;97739.48;1710735;83;22646;-83
2022/02/19 13:05:06;;;;;;;;;;;;;;;9.39;38.03;97746.70;1744140;81;26001;-83